createdAt,value
2018-05-07T00:02:11.610Z,50.92
2018-05-07T00:04:39.923Z,51.38
2018-05-07T00:07:08.286Z,51.16
2018-05-07T00:09:36.618Z,51.60
2018-05-07T00:12:04.954Z,52.15
2018-05-07T00:14:33.351Z,52.22
2018-05-07T00:17:02.442Z,52.06
2018-05-07T00:19:30.779Z,52.47
2018-05-07T00:21:59.581Z,53.19
2018-05-07T00:24:27.892Z,53.67
2018-05-07T00:26:56.228Z,53.72
2018-05-07T00:29:24.601Z,53.36
2018-05-07T00:31:52.921Z,54.32
2018-05-07T00:34:21.249Z,54.50
2018-05-07T00:36:49.615Z,54.50
2018-05-07T00:39:17.951Z,53.90
2018-05-07T00:41:46.252Z,54.16
2018-05-07T00:44:14.819Z,54.02
2018-05-07T00:46:43.148Z,53.87
2018-05-07T00:49:11.476Z,53.99
2018-05-07T00:51:40.066Z,54.51
2018-05-07T00:54:08.364Z,55.42
2018-05-07T00:56:37.470Z,55.31
2018-05-07T00:59:05.838Z,55.59
2018-05-07T01:01:34.143Z,56.00
2018-05-07T01:04:02.446Z,56.36
2018-05-07T01:06:31.024Z,57.23
2018-05-07T01:08:59.372Z,56.42
2018-05-07T01:11:27.696Z,57.06
2018-05-07T01:13:56.042Z,57.00
2018-05-07T01:16:24.391Z,56.89
2018-05-07T01:18:53.484Z,57.00
2018-05-07T01:21:22.622Z,57.16
2018-05-07T01:23:50.934Z,57.24
2018-05-07T01:26:19.245Z,57.48
2018-05-07T01:28:48.647Z,57.51
2018-05-07T01:31:16.970Z,57.73
2018-05-07T01:33:45.272Z,58.67
2018-05-07T01:36:13.648Z,58.38
2018-05-07T01:38:41.959Z,58.79
2018-05-07T01:41:11.047Z,58.87
2018-05-07T01:43:40.187Z,58.68
2018-05-07T01:46:08.530Z,59.00
2018-05-07T01:48:36.863Z,59.80
2018-05-07T01:51:05.485Z,59.71
2018-05-07T01:53:34.594Z,60.16
2018-05-07T01:56:02.926Z,59.51
2018-05-07T01:58:31.270Z,59.49
2018-05-07T02:00:59.576Z,59.47
2018-05-07T02:03:27.869Z,59.00
2018-05-07T02:05:56.199Z,59.03
2018-05-07T02:08:24.509Z,59.29
2018-05-07T02:10:52.805Z,59.44
2018-05-07T02:13:21.731Z,59.82
2018-05-07T02:15:50.826Z,59.43
2018-05-07T02:18:19.151Z,60.13
2018-05-07T02:20:47.497Z,60.22
2018-05-07T02:23:15.811Z,60.45
2018-05-07T02:25:44.160Z,60.73
2018-05-07T02:28:12.514Z,60.96
2018-05-07T02:30:41.588Z,61.37
2018-05-07T02:33:09.927Z,61.96
2018-05-07T02:35:38.663Z,62.79
2018-05-07T02:38:07.007Z,62.54
2018-05-07T02:40:35.327Z,62.32
2018-05-07T02:43:04.475Z,62.51
2018-05-07T02:45:32.782Z,62.67
2018-05-07T02:48:01.136Z,63.37
2018-05-07T02:50:29.476Z,63.30
2018-05-07T02:52:58.544Z,62.72
2018-05-07T02:55:26.846Z,63.01
2018-05-07T02:57:56.133Z,62.80
2018-05-07T03:00:25.244Z,62.86
2018-05-07T03:02:54.317Z,63.11
2018-05-07T03:05:22.688Z,63.26
2018-05-07T03:07:51.011Z,63.21
2018-05-07T03:10:19.331Z,63.67
2018-05-07T03:12:47.679Z,63.88
2018-05-07T03:15:15.981Z,64.24
2018-05-07T03:17:44.291Z,64.33
2018-05-07T03:20:13.803Z,64.56
2018-05-07T03:22:42.895Z,64.65
2018-05-07T03:25:11.986Z,64.36
2018-05-07T03:27:40.364Z,63.98
2018-05-07T03:30:08.707Z,64.18
2018-05-07T03:32:37.029Z,64.02
2018-05-07T03:35:05.381Z,64.34
2018-05-07T03:37:33.701Z,64.21
2018-05-07T03:40:02.796Z,64.63
2018-05-07T03:42:32.279Z,64.43
2018-05-07T03:45:00.580Z,64.38
2018-05-07T03:47:29.673Z,63.96
2018-05-07T03:49:58.787Z,63.73
2018-05-07T03:52:27.131Z,63.47
2018-05-07T03:54:56.238Z,63.38
2018-05-07T03:57:24.592Z,63.71
2018-05-07T03:59:53.670Z,63.67
2018-05-07T04:02:24.581Z,63.49
2018-05-07T04:04:53.229Z,63.10
2018-05-07T04:07:21.572Z,62.58
2018-05-07T04:09:49.919Z,62.54
2018-05-07T04:12:19.160Z,63.16
2018-05-07T04:14:47.500Z,62.84
2018-05-07T04:17:41.229Z,63.15
2018-05-07T04:20:27.260Z,62.81
2018-05-07T04:23:14.219Z,62.08
2018-05-07T04:25:42.630Z,62.69
2018-05-07T04:28:11.716Z,62.18
2018-05-07T04:30:40.102Z,61.73
2018-05-07T04:33:08.440Z,61.54
2018-05-07T04:35:36.782Z,61.08
2018-05-07T04:38:05.918Z,60.81
2018-05-07T04:40:34.228Z,60.72
2018-05-07T04:43:02.613Z,60.68
2018-05-07T04:45:31.243Z,61.01
2018-05-07T04:47:59.604Z,60.64
2018-05-07T04:50:28.249Z,59.95
2018-05-07T04:52:56.592Z,60.40
2018-05-07T04:55:24.894Z,60.54
2018-05-07T04:57:53.203Z,60.26
2018-05-07T05:00:21.548Z,59.10
2018-05-07T05:02:50.654Z,59.21
2018-05-07T05:05:19.730Z,59.14
2018-05-07T05:07:48.428Z,58.63
2018-05-07T05:10:16.754Z,58.56
2018-05-07T05:12:45.111Z,57.54
2018-05-07T05:15:13.475Z,56.72
2018-05-07T05:17:41.809Z,56.52
2018-05-07T05:20:10.119Z,56.30
2018-05-07T05:22:38.469Z,56.06
2018-05-07T05:25:06.783Z,55.79
2018-05-07T05:27:35.097Z,55.38
2018-05-07T05:30:04.308Z,54.82
2018-05-07T05:32:32.666Z,54.50
2018-05-07T05:35:01.765Z,54.35
2018-05-07T05:37:30.874Z,54.00
2018-05-07T05:39:59.970Z,54.25
2018-05-07T05:42:29.044Z,54.32
2018-05-07T05:44:57.388Z,54.97
2018-05-07T05:47:25.697Z,54.27
2018-05-07T05:49:54.156Z,54.88
2018-05-07T05:52:22.778Z,54.60
2018-05-07T05:54:51.868Z,54.41
2018-05-07T05:57:20.178Z,54.50
2018-05-07T05:59:48.535Z,54.26
2018-05-07T06:02:16.922Z,53.93
2018-05-07T06:04:45.272Z,53.30
2018-05-07T06:07:13.631Z,53.09
2018-05-07T06:09:42.091Z,52.89
2018-05-07T06:12:10.413Z,52.93
2018-05-07T06:14:39.061Z,53.39
2018-05-07T06:17:07.277Z,52.95
2018-05-07T06:19:35.622Z,53.07
2018-05-07T06:22:04.093Z,52.03
2018-05-07T06:24:32.438Z,51.99
2018-05-07T06:27:01.526Z,52.10
2018-05-07T06:29:29.855Z,51.36
2018-05-07T06:31:58.212Z,50.62
2018-05-07T06:34:26.679Z,50.02
2018-05-07T06:36:55.303Z,50.15
2018-05-07T06:39:23.673Z,49.62
2018-05-07T06:41:51.996Z,48.96
2018-05-07T06:44:20.370Z,48.89
2018-05-07T06:46:48.692Z,48.57
2018-05-07T06:49:17.062Z,48.08
2018-05-07T06:51:46.177Z,47.49
2018-05-07T06:54:14.516Z,47.16
2018-05-07T06:56:42.900Z,45.63
2018-05-07T06:59:11.696Z,45.01
2018-05-07T07:01:40.772Z,44.92
2018-05-07T07:04:09.099Z,44.18
2018-05-07T07:06:37.455Z,45.00
2018-05-07T07:09:06.557Z,44.51
2018-05-07T07:11:35.638Z,43.21
2018-05-07T07:14:03.985Z,43.08
2018-05-07T07:16:32.311Z,42.26
2018-05-07T07:19:00.621Z,42.62
2018-05-07T07:21:29.481Z,42.08
2018-05-07T07:23:58.564Z,41.79
2018-05-07T07:26:27.655Z,40.96
2018-05-07T07:28:56.785Z,41.55
2018-05-07T07:31:25.105Z,42.37
2018-05-07T07:33:53.488Z,42.05
2018-05-07T07:36:21.810Z,41.04
2018-05-07T07:38:50.141Z,40.66
2018-05-07T07:41:18.462Z,39.75
2018-05-07T07:43:47.090Z,40.35
2018-05-07T07:46:15.403Z,40.41
2018-05-07T07:48:43.781Z,39.04
2018-05-07T07:51:12.122Z,38.99
2018-05-07T07:53:40.438Z,37.95
2018-05-07T07:56:09.559Z,37.10
2018-05-07T07:58:38.727Z,37.16
2018-05-07T08:01:07.088Z,36.99
2018-05-07T08:03:35.460Z,36.87
2018-05-07T08:06:03.891Z,37.01
2018-05-07T08:08:32.995Z,36.34
2018-05-07T08:11:02.088Z,36.58
2018-05-07T08:13:31.240Z,36.99
2018-05-07T08:15:59.570Z,36.18
2018-05-07T08:18:27.953Z,35.99
2018-05-07T08:20:56.275Z,35.79
2018-05-07T08:23:24.644Z,35.80
2018-05-07T08:25:52.979Z,35.40
2018-05-07T08:28:22.155Z,34.60
2018-05-07T08:30:50.471Z,34.61
2018-05-07T08:33:18.791Z,34.50
2018-05-07T08:35:47.154Z,33.00
2018-05-07T08:38:15.515Z,33.07
2018-05-07T08:40:43.865Z,33.27
2018-05-07T08:43:13.006Z,33.18
2018-05-07T08:45:41.313Z,32.42
2018-05-07T08:48:09.623Z,32.26
2018-05-07T08:50:38.318Z,32.72
2018-05-07T08:53:06.781Z,32.30
2018-05-07T08:55:35.778Z,32.48
2018-05-07T08:58:04.947Z,32.34
2018-05-07T09:00:33.267Z,31.53
2018-05-07T09:03:01.594Z,32.33
2018-05-07T09:05:29.972Z,31.73
2018-05-07T09:07:58.311Z,30.67
2018-05-07T09:10:26.631Z,29.71
2018-05-07T09:12:55.473Z,30.23
2018-05-07T09:15:23.831Z,29.81
2018-05-07T09:17:52.919Z,29.52
2018-05-07T09:20:21.263Z,29.75
2018-05-07T09:22:49.612Z,30.41
2018-05-07T09:25:17.944Z,30.32
2018-05-07T09:27:46.299Z,29.80
2018-05-07T09:30:14.660Z,29.26
2018-05-07T09:32:42.972Z,29.41
2018-05-07T09:35:12.377Z,28.29
2018-05-07T09:37:40.782Z,28.79
2018-05-07T09:40:09.112Z,28.32
2018-05-07T09:42:37.474Z,27.05
2018-05-07T09:45:05.768Z,27.20
2018-05-07T09:47:34.095Z,27.96
2018-05-07T09:50:02.462Z,27.27
2018-05-07T09:52:30.768Z,27.04
2018-05-07T09:54:59.094Z,26.89
2018-05-07T09:57:27.847Z,27.04
2018-05-07T09:59:56.171Z,26.50
2018-05-07T10:02:24.481Z,26.59
2018-05-07T10:04:53.595Z,26.70
2018-05-07T10:07:22.714Z,26.58
2018-05-07T10:09:51.031Z,25.20
2018-05-07T10:12:19.699Z,24.29
2018-05-07T10:14:48.018Z,25.06
2018-05-07T10:17:17.134Z,24.82
2018-05-07T10:19:46.706Z,24.68
2018-05-07T10:22:15.038Z,25.15
2018-05-07T10:24:43.413Z,24.27
2018-05-07T10:27:11.797Z,24.61
2018-05-07T10:29:40.119Z,25.00
2018-05-07T10:32:08.438Z,25.24
2018-05-07T10:34:37.580Z,25.45
2018-05-07T10:37:05.931Z,25.36
2018-05-07T10:39:34.253Z,25.92
2018-05-07T10:42:02.849Z,25.35
2018-05-07T10:44:31.943Z,25.20
2018-05-07T10:47:00.239Z,25.75
2018-05-07T10:49:29.398Z,25.35
2018-05-07T10:51:57.711Z,24.69
2018-05-07T10:54:26.810Z,25.46
2018-05-07T10:56:55.932Z,26.09
2018-05-07T10:59:24.292Z,25.71
2018-05-07T11:01:52.649Z,25.47
2018-05-07T11:04:21.115Z,26.03
2018-05-07T11:06:49.452Z,26.01
2018-05-07T11:09:17.800Z,25.71
2018-05-07T11:11:46.222Z,26.02
2018-05-07T11:14:14.596Z,25.47
2018-05-07T11:16:42.921Z,25.40
2018-05-07T11:19:11.281Z,25.66
2018-05-07T11:21:39.619Z,25.65
2018-05-07T11:24:07.948Z,26.12
2018-05-07T11:26:36.792Z,25.80
2018-05-07T11:29:05.119Z,25.85
2018-05-07T11:31:33.458Z,25.34
2018-05-07T11:34:01.790Z,24.88
2018-05-07T11:36:30.130Z,23.87
2018-05-07T11:38:58.478Z,23.66
2018-05-07T11:41:26.863Z,23.90
2018-05-07T11:43:55.218Z,24.21
2018-05-07T11:46:24.350Z,24.23
2018-05-07T11:48:53.136Z,24.02
2018-05-07T11:51:21.473Z,24.23
2018-05-07T11:53:50.613Z,24.27
2018-05-07T11:56:18.948Z,23.41
2018-05-07T11:58:48.050Z,23.43
2018-05-07T12:01:16.357Z,23.77
2018-05-07T12:03:44.695Z,23.13
2018-05-07T12:06:13.037Z,23.56
2018-05-07T12:08:41.359Z,23.45
2018-05-07T12:11:10.720Z,22.71
2018-05-07T12:13:39.057Z,22.95
2018-05-07T12:16:07.518Z,22.97
2018-05-07T12:18:35.930Z,22.41
2018-05-07T12:21:04.240Z,22.04
2018-05-07T12:23:32.624Z,22.80
2018-05-07T12:26:01.017Z,23.85
2018-05-07T12:28:29.329Z,23.69
2018-05-07T12:30:58.413Z,23.82
2018-05-07T12:33:28.027Z,24.08
2018-05-07T12:35:56.331Z,23.83
2018-05-07T12:38:24.748Z,24.18
2018-05-07T12:40:53.121Z,25.59
2018-05-07T12:43:21.452Z,25.08
2018-05-07T12:45:50.556Z,24.55
2018-05-07T12:48:19.650Z,23.97
2018-05-07T12:50:48.730Z,24.81
2018-05-07T12:53:17.830Z,24.42
2018-05-07T12:55:47.234Z,24.37
2018-05-07T12:58:15.556Z,25.77
2018-05-07T13:00:43.855Z,25.60
2018-05-07T13:03:12.952Z,25.31
2018-05-07T13:05:41.279Z,24.35
2018-05-07T13:08:10.376Z,24.22
2018-05-07T13:10:38.747Z,24.51
2018-05-07T13:13:07.093Z,23.55
2018-05-07T13:15:35.419Z,23.14
2018-05-07T13:18:03.863Z,23.51
2018-05-07T13:20:32.171Z,24.19
2018-05-07T13:23:00.498Z,24.64
2018-05-07T13:25:28.852Z,24.60
2018-05-07T13:27:57.165Z,24.05
2018-05-07T13:30:25.467Z,24.20
2018-05-07T13:32:54.591Z,23.68
2018-05-07T13:35:23.075Z,24.22
2018-05-07T13:37:51.387Z,24.90
2018-05-07T13:40:20.747Z,25.18
2018-05-07T13:42:49.099Z,24.55
2018-05-07T13:45:17.435Z,24.54
2018-05-07T13:47:45.789Z,24.80
2018-05-07T13:50:14.092Z,24.18
2018-05-07T13:52:42.450Z,24.10
2018-05-07T13:55:10.815Z,23.75
2018-05-07T13:57:39.144Z,24.27
2018-05-07T14:00:07.472Z,24.58
2018-05-07T14:02:36.700Z,24.87
2018-05-07T14:05:05.028Z,24.52
2018-05-07T14:07:33.360Z,23.98
2018-05-07T14:10:01.719Z,24.23
2018-05-07T14:12:30.047Z,24.10
2018-05-07T14:14:58.397Z,24.00
2018-05-07T14:17:26.749Z,24.19
2018-05-07T14:19:55.834Z,24.37
2018-05-07T14:22:24.917Z,24.39
2018-05-07T14:24:54.551Z,23.74
2018-05-07T14:27:22.895Z,23.95
2018-05-07T14:29:51.200Z,24.08
2018-05-07T14:32:20.318Z,23.91
2018-05-07T14:34:48.659Z,24.19
2018-05-07T14:37:17.751Z,24.32
2018-05-07T14:39:46.871Z,24.16
2018-05-07T14:42:15.959Z,24.34
2018-05-07T14:44:45.050Z,24.01
2018-05-07T14:47:14.662Z,24.74
2018-05-07T14:49:43.759Z,25.49
2018-05-07T14:52:12.097Z,25.27
2018-05-07T14:54:40.460Z,24.85
2018-05-07T14:57:08.781Z,25.00
2018-05-07T14:59:37.119Z,24.81
2018-05-07T15:02:05.473Z,24.62
2018-05-07T15:04:33.802Z,24.29
2018-05-07T15:07:02.116Z,22.96
2018-05-07T15:09:30.812Z,23.76
2018-05-07T15:11:59.138Z,23.99
2018-05-07T15:14:27.462Z,23.72
2018-05-07T15:16:56.593Z,24.84
2018-05-07T15:19:24.935Z,25.22
2018-05-07T15:21:53.259Z,24.65
2018-05-07T15:24:21.618Z,24.31
2018-05-07T15:26:49.957Z,24.16
2018-05-07T15:29:18.327Z,24.41
2018-05-07T15:31:46.826Z,24.14
2018-05-07T15:34:15.916Z,25.35
2018-05-07T15:36:45.004Z,25.37
2018-05-07T15:39:13.369Z,25.58
2018-05-07T15:41:41.676Z,25.35
2018-05-07T15:44:10.783Z,25.66
2018-05-07T15:46:39.868Z,25.04
2018-05-07T15:49:08.210Z,25.10
2018-05-07T15:51:36.538Z,25.37
2018-05-07T15:54:05.314Z,24.54
2018-05-07T15:56:34.407Z,24.68
2018-05-07T15:59:03.495Z,24.37
2018-05-07T16:01:31.843Z,24.35
2018-05-07T16:04:00.946Z,24.27
2018-05-07T16:06:30.044Z,25.07
2018-05-07T16:08:58.438Z,25.13
2018-05-07T16:11:26.757Z,25.13
2018-05-07T16:13:55.060Z,25.06
2018-05-07T16:16:23.911Z,25.32
2018-05-07T16:18:52.282Z,26.02
2018-05-07T16:21:21.396Z,25.91
2018-05-07T16:23:49.778Z,25.73
2018-05-07T16:26:18.101Z,26.01
2018-05-07T16:28:46.423Z,26.06
2018-05-07T16:31:15.715Z,26.31
2018-05-07T16:33:43.907Z,26.34
2018-05-07T16:36:12.239Z,26.49
2018-05-07T16:38:40.841Z,27.05
2018-05-07T16:41:09.169Z,26.97
2018-05-07T16:43:37.487Z,27.20
2018-05-07T16:46:05.825Z,27.78
2018-05-07T16:48:34.148Z,27.95
2018-05-07T16:51:02.454Z,28.03
2018-05-07T16:53:30.791Z,27.84
2018-05-07T16:56:00.302Z,27.93
2018-05-07T16:58:28.629Z,27.90
2018-05-07T17:00:57.356Z,28.38
2018-05-07T17:03:25.668Z,28.54
2018-05-07T17:05:54.016Z,28.48
2018-05-07T17:08:22.450Z,28.49
2018-05-07T17:10:50.763Z,27.99
2018-05-07T17:13:19.103Z,28.02
2018-05-07T17:15:48.381Z,27.96
2018-05-07T17:18:16.702Z,27.98
2018-05-07T17:20:45.108Z,28.35
2018-05-07T17:23:13.610Z,28.50
2018-05-07T17:25:41.924Z,28.90
2018-05-07T17:28:10.263Z,28.95
2018-05-07T17:30:38.864Z,28.90
2018-05-07T17:33:07.218Z,28.67
2018-05-07T17:35:35.557Z,28.92
2018-05-07T17:38:03.922Z,29.23
2018-05-07T17:40:32.991Z,29.06
2018-05-07T17:43:01.280Z,29.14
2018-05-07T17:45:59.800Z,29.10
2018-05-07T17:48:45.676Z,29.64
2018-05-07T17:51:14.088Z,30.06
2018-05-07T17:53:42.420Z,29.95
2018-05-07T17:56:11.708Z,30.02
2018-05-07T17:58:40.086Z,30.14
2018-05-07T18:01:08.392Z,30.04
2018-05-07T18:03:37.463Z,30.19
2018-05-07T18:06:06.121Z,30.48
2018-05-07T18:08:34.512Z,30.64
2018-05-07T18:11:02.813Z,30.91
2018-05-07T18:13:31.925Z,30.69
2018-05-07T18:16:01.186Z,30.96
2018-05-07T18:18:30.114Z,30.90
2018-05-07T18:20:59.265Z,31.07
2018-05-07T18:23:27.564Z,31.25
2018-05-07T18:25:55.995Z,31.40
2018-05-07T18:28:24.730Z,31.60
2018-05-07T18:30:53.037Z,31.62
2018-05-07T18:33:22.142Z,31.53
2018-05-07T18:35:51.243Z,32.01
2018-05-07T18:38:20.391Z,32.17
2018-05-07T18:40:48.734Z,32.16
2018-05-07T18:43:17.177Z,31.91
2018-05-07T18:45:46.335Z,32.30
2018-05-07T18:48:14.709Z,32.65
2018-05-07T18:50:43.640Z,32.65
2018-05-07T18:53:11.957Z,33.04
2018-05-07T18:55:40.325Z,33.41
2018-05-07T18:58:09.044Z,33.59
2018-05-07T19:00:37.415Z,33.77
2018-05-07T19:03:05.765Z,33.76
2018-05-07T19:05:34.932Z,34.01
2018-05-07T19:08:03.315Z,34.50
2018-05-07T19:10:31.771Z,34.17
2018-05-07T19:13:00.565Z,34.47
2018-05-07T19:15:28.939Z,34.61
2018-05-07T19:17:57.292Z,34.94
2018-05-07T19:20:25.649Z,35.17
2018-05-07T19:22:54.035Z,35.37
2018-05-07T19:25:23.193Z,35.27
2018-05-07T19:27:51.547Z,35.43
2018-05-07T19:30:19.860Z,35.90
2018-05-07T19:32:48.199Z,36.55
2018-05-07T19:35:16.943Z,36.83
2018-05-07T19:37:45.271Z,37.20
2018-05-07T19:40:13.615Z,37.18
2018-05-07T19:42:41.966Z,37.27
2018-05-07T19:45:10.297Z,37.30
2018-05-07T19:47:38.617Z,37.71
2018-05-07T19:50:07.085Z,37.74
2018-05-07T19:52:35.401Z,37.88
2018-05-07T19:55:04.499Z,37.94
2018-05-07T19:57:34.086Z,38.39
2018-05-07T20:00:02.538Z,38.53
2018-05-07T20:02:30.890Z,38.24
2018-05-07T20:04:59.226Z,38.22
2018-05-07T20:07:27.556Z,38.38
2018-05-07T20:09:55.863Z,38.61
2018-05-07T20:12:24.292Z,38.74
2018-05-07T20:14:52.583Z,39.36
2018-05-07T20:17:20.982Z,38.94
2018-05-07T20:19:49.887Z,40.72
2018-05-07T20:22:18.237Z,41.05
2018-05-07T20:24:46.628Z,41.61
2018-05-07T20:27:15.011Z,41.65
2018-05-07T20:29:43.355Z,41.74
2018-05-07T20:32:11.726Z,41.63
2018-05-07T20:34:40.895Z,41.60
2018-05-07T20:37:09.228Z,42.11
2018-05-07T20:39:37.581Z,42.69
2018-05-07T20:42:06.800Z,42.28
2018-05-07T20:44:35.159Z,42.78
2018-05-07T20:47:04.277Z,43.65
2018-05-07T20:49:32.655Z,44.10
2018-05-07T20:52:01.008Z,44.71
2018-05-07T20:54:30.164Z,44.95
2018-05-07T20:56:58.525Z,45.01
2018-05-07T20:59:26.868Z,44.73
2018-05-07T21:01:55.997Z,44.84
2018-05-07T21:04:24.492Z,44.36
2018-05-07T21:06:52.809Z,44.91
2018-05-07T21:09:21.160Z,45.40
2018-05-07T21:11:49.507Z,45.72
2018-05-07T21:14:18.582Z,45.77
2018-05-07T21:16:47.643Z,45.90
2018-05-07T21:19:16.024Z,46.07
2018-05-07T21:21:44.359Z,46.23
2018-05-07T21:24:12.668Z,46.47
2018-05-07T21:26:41.412Z,46.73
2018-05-07T21:29:09.744Z,46.65
2018-05-07T21:31:38.099Z,47.03
2018-05-07T21:34:06.463Z,47.47
2018-05-07T21:36:34.769Z,47.81
2018-05-07T21:39:03.079Z,47.92
2018-05-07T21:41:31.425Z,48.39
2018-05-07T21:43:59.735Z,48.48
2018-05-07T21:46:28.076Z,48.56
2018-05-07T21:48:56.614Z,48.59
2018-05-07T21:51:25.076Z,48.96
2018-05-07T21:53:53.449Z,49.36
2018-05-07T21:56:21.829Z,49.50
2018-05-07T21:58:50.173Z,49.80
2018-05-07T22:01:18.495Z,49.52
2018-05-07T22:03:47.132Z,48.74
2018-05-07T22:06:15.468Z,48.57
2018-05-07T22:08:44.592Z,48.01
2018-05-07T22:11:13.766Z,48.10
2018-05-07T22:13:46.547Z,48.11
2018-05-07T22:16:15.683Z,48.15
2018-05-07T22:18:44.027Z,48.32
2018-05-07T22:21:13.149Z,48.56
2018-05-07T22:23:41.604Z,48.22
2018-05-07T22:26:10.693Z,47.91
2018-05-07T22:28:39.759Z,48.20
2018-05-07T22:31:08.178Z,48.39
2018-05-07T22:33:37.327Z,48.19
2018-05-07T22:36:06.427Z,48.34
2018-05-07T22:38:34.793Z,48.07
2018-05-07T22:41:07.625Z,48.03
2018-05-07T22:43:36.312Z,48.06
2018-05-07T22:46:06.057Z,47.61
2018-05-07T22:48:39.393Z,48.25
2018-05-07T22:51:07.721Z,48.00
2018-05-07T22:53:36.058Z,47.62
2018-05-07T22:56:04.413Z,48.23
2018-05-07T22:58:32.736Z,48.18
2018-05-07T23:01:01.079Z,48.32
2018-05-07T23:03:29.436Z,47.95
2018-05-07T23:05:57.753Z,48.72
2018-05-07T23:08:26.087Z,48.67
2018-05-07T23:10:54.927Z,48.86
2018-05-07T23:13:23.255Z,49.31
2018-05-07T23:15:51.577Z,49.66
2018-05-07T23:18:21.460Z,49.06
2018-05-07T23:20:49.771Z,49.15
2018-05-07T23:23:18.107Z,49.96
2018-05-07T23:25:46.480Z,51.04
2018-05-07T23:28:14.818Z,50.75
2018-05-07T23:30:43.145Z,50.65
2018-05-07T23:33:11.606Z,50.93
2018-05-07T23:35:40.711Z,51.51
2018-05-07T23:38:09.027Z,51.49
2018-05-07T23:40:37.439Z,51.62
2018-05-07T23:43:06.520Z,51.87
2018-05-07T23:45:34.846Z,51.74
2018-05-07T23:48:03.182Z,52.29
2018-05-07T23:50:31.482Z,52.04
2018-05-07T23:53:00.584Z,52.15
2018-05-07T23:55:29.008Z,52.10
2018-05-07T23:57:57.317Z,52.57
